Time;durP1;ratioP1;P1;durP2;ratioP2;P2;SDS_P1;SDS_P2;PMS_P1;PMS_P2;Temp;Humidity;BMP_temperature;BMP_pressure;BME280_temperature;BME280_humidity;BME280_pressure;Samples;Min_cycle;Max_cycle;Signal;HPM_P1;HPM_P2
2022/06/29 00:01:36;;;;;;;68.75;46.03;;;;;;;-143.10;89.64;50887.34;5004048;28;20318;-69
2022/06/29 00:04:18;;;;;;;66.28;44.72;;;;;;;-143.10;88.77;50906.91;5060648;28;20131;-69
2022/06/29 00:07:07;;;;;;;69.65;45.35;;;;;;;-143.10;89.36;50901.03;5043633;28;20060;-69
2022/06/29 00:09:56;;;;;;;68.15;47.53;;;;;;;-143.10;86.72;50859.94;5030896;28;20123;-69
2022/06/29 00:12:39;;;;;;;71.20;45.65;;;;;;;-143.10;86.22;50924.53;5045546;28;20041;-69
2022/06/29 00:15:29;;;;;;;70.63;46.03;;;;;;;-143.10;86.73;50928.44;5046475;28;20052;-69
2022/06/29 00:18:11;;;;;;;70.25;46.53;;;;;;;-143.10;87.51;50887.34;5034096;28;20076;-69
2022/06/29 00:21:00;;;;;;;68.05;45.95;;;;;;;-143.10;87.18;50869.72;5038924;28;20668;-69
2022/06/29 00:23:49;;;;;;;67.53;45.53;;;;;;;-143.10;86.55;50883.44;5047710;28;20060;-68
2022/06/29 00:26:33;;;;;;;64.10;44.55;;;;;;;-143.10;86.60;50893.22;5047782;28;20072;-69
2022/06/29 00:29:22;;;;;;;70.65;45.90;;;;;;;-143.10;87.73;50877.56;5029496;28;20057;-68
2022/06/29 00:32:04;;;;;;;70.28;44.08;;;;;;;-143.10;87.07;50904.97;5046402;28;20056;-69
2022/06/29 00:34:59;;;;;;;67.03;42.15;;;;;;;-143.10;87.13;50916.72;5047229;28;20502;-69
2022/06/29 00:37:35;;;;;;;58.65;40.65;;;;;;;-143.10;88.23;50893.22;5046837;28;20427;-69
2022/06/29 00:40:24;;;;;;;60.88;41.15;;;;;;;-143.10;87.70;50912.78;5046650;28;20572;-69
2022/06/29 00:43:06;;;;;;;59.80;41.17;;;;;;;-143.10;88.92;50885.38;5047611;28;20749;-69
2022/06/29 00:45:55;;;;;;;59.42;41.03;;;;;;;-143.10;86.92;50891.25;5047257;28;20055;-68
2022/06/29 00:48:37;;;;;;;52.53;39.30;;;;;;;-143.10;89.15;50899.09;5046781;28;20053;-68
2022/06/29 00:51:40;;;;;;;62.95;41.42;;;;;;;-143.10;86.77;50914.75;5046878;28;20064;-68
2022/06/29 00:54:25;;;;;;;62.10;40.10;;;;;;;-143.10;86.20;50893.22;5046380;28;20139;-68
2022/06/29 00:57:19;;;;;;;56.30;38.40;;;;;;;-143.10;87.38;50928.44;5046738;28;20504;-69
2022/06/29 01:00:08;;;;;;;63.78;39.10;;;;;;;-143.10;90.51;50926.50;5047021;28;20045;-69
2022/06/29 01:02:50;;;;;;;64.38;40.20;;;;;;;-143.10;91.69;50899.09;5046990;28;20056;-69
2022/06/29 01:05:41;;;;;;;62.70;39.83;;;;;;;-143.10;90.04;50871.69;5046688;28;20056;-69
2022/06/29 01:08:23;;;;;;;70.18;44.75;;;;;;;-143.10;97.60;50961.72;5046021;28;20053;-68
2022/06/29 01:11:12;;;;;;;67.78;47.17;;;;;;;-143.10;91.65;50910.84;5046822;28;20127;-69
2022/06/29 01:13:54;;;;;;;68.10;47.08;;;;;;;-143.10;93.85;50920.63;5047183;28;20068;-68
2022/06/29 01:16:43;;;;;;;69.07;48.28;;;;;;;-143.10;96.56;50865.81;5029339;28;20401;-68
2022/06/29 01:19:25;;;;;;;68.15;48.50;;;;;;;-143.10;96.67;50895.16;5047545;28;20372;-69
2022/06/29 01:22:21;;;;;;;74.68;48.97;;;;;;;-143.10;98.98;50881.47;5047011;28;20206;-69
2022/06/29 01:25:04;;;;;;;73.43;49.42;;;;;;;-143.10;100.00;50895.16;5047112;28;20736;-69
2022/06/29 01:27:59;;;;;;;79.82;49.25;;;;;;;-143.10;100.00;50910.84;5048017;28;20118;-69
2022/06/29 01:30:34;;;;;;;75.97;49.95;;;;;;;-143.10;99.43;50932.38;5047784;28;20063;-67
2022/06/29 01:33:29;;;;;;;74.70;47.65;;;;;;;-143.10;99.12;50904.97;5030778;28;20489;-69
2022/06/29 01:36:05;;;;;;;67.20;47.25;;;;;;;-143.10;100.00;50932.38;5049356;28;20041;-69
2022/06/29 01:39:00;;;;;;;67.95;49.85;;;;;;;-143.10;100.00;50891.25;5046963;28;20048;-69
2022/06/29 01:41:35;;;;;;;71.38;48.90;;;;;;;-143.10;100.00;50910.84;5029968;28;20052;-69
2022/06/29 01:44:24;;;;;;;70.70;49.72;;;;;;;-143.10;100.00;50901.03;5045980;28;20044;-69
2022/06/29 01:47:07;;;;;;;71.18;48.88;;;;;;;-143.10;100.00;50893.22;5029168;28;20379;-68
2022/06/29 01:50:02;;;;;;;69.50;49.15;;;;;;;-143.10;100.00;50903.00;5044650;28;20052;-68
2022/06/29 01:52:37;;;;;;;70.43;48.88;;;;;;;-143.10;100.00;50906.91;5029247;28;20744;-68
2022/06/29 01:55:32;;;;;;;76.50;48.55;;;;;;;-143.10;100.00;50893.22;5045355;28;20056;-69
2022/06/29 01:58:07;;;;;;;70.40;48.72;;;;;;;-143.10;99.92;50942.16;5045385;28;20066;-68
2022/06/29 02:01:02;;;;;;;70.82;49.08;;;;;;;-143.10;100.00;50916.72;5046120;28;20049;-67
2022/06/29 02:03:37;;;;;;;68.00;47.40;;;;;;;-143.10;100.00;50904.97;5045479;28;20045;-69
2022/06/29 02:06:26;;;;;;;67.40;46.45;;;;;;;-143.10;99.71;50893.22;5044690;28;20493;-67
2022/06/29 02:09:08;;;;;;;70.75;48.53;;;;;;;-143.10;96.96;50910.84;5044145;28;20041;-68
2022/06/29 02:11:57;;;;;;;66.63;47.13;;;;;;;-143.10;94.36;50899.09;5026897;28;20085;-68
2022/06/29 02:14:39;;;;;;;64.88;45.40;;;;;;;-143.10;95.29;50936.28;5044972;28;20041;-67
2022/06/29 02:17:34;;;;;;;65.70;47.40;;;;;;;-143.10;92.94;50899.09;5042605;28;20100;-68
2022/06/29 02:20:11;;;;;;;66.45;45.38;;;;;;;-143.10;92.42;50904.97;5024420;28;20401;-68
2022/06/29 02:23:06;;;;;;;64.28;47.40;;;;;;;-143.10;90.56;50897.13;5024975;28;20340;-69
2022/06/29 02:25:42;;;;;;;68.15;45.88;;;;;;;-143.10;87.50;50887.34;5029817;28;20091;-69
2022/06/29 02:28:37;;;;;;;66.75;45.03;;;;;;;-143.10;88.64;50901.03;5044953;27;20128;-68
2022/06/29 02:34:46;;;;;;;61.00;40.22;;;;;;;-143.10;80.07;50877.56;4992413;28;20048;-68
2022/06/29 02:37:22;;;;;;;67.80;40.45;;;;;;;-143.10;86.72;50881.47;5006643;28;20500;-68
2022/06/29 02:40:18;;;;;;;49.88;37.90;;;;;;;-143.10;81.57;50885.38;5009302;28;20057;-69
2022/06/29 02:42:53;;;;;;;57.20;38.53;;;;;;;-143.10;84.07;50881.47;5025226;28;20420;-69
2022/06/29 02:45:49;;;;;;;;;;;;;;;-143.10;77.69;50832.53;5024843;28;20124;-69
2022/06/29 02:48:25;;;;;;;56.83;38.45;;;;;;;-143.10;78.68;50842.31;5024038;28;19931;-69
2022/06/29 02:51:14;;;;;;;55.00;35.97;;;;;;;-143.10;77.93;50879.50;5008982;28;20049;-69
2022/06/29 02:53:56;;;;;;;59.28;34.03;;;;;;;-143.10;72.65;50881.47;5024846;28;20090;-68
2022/06/29 02:56:45;;;;;;;58.20;30.15;;;;;;;-143.10;71.03;50842.31;5024258;28;20129;-69
2022/06/29 02:59:28;;;;;;;49.40;21.90;;;;;;;-143.10;65.26;50846.22;5023965;28;20192;-68
2022/06/29 03:02:17;;;;;;;42.08;17.90;;;;;;;-143.10;61.46;50852.09;5023956;28;20049;-69
2022/06/29 03:05:00;;;;;;;;;;;;;;;-143.10;58.58;50873.63;5025170;28;20672;-69
2022/06/29 03:07:55;;;;;;;46.30;16.67;;;;;;;-143.10;67.49;50889.31;5024094;28;20611;-67
2022/06/29 03:10:30;;;;;;;45.17;16.30;;;;;;;-143.10;60.21;50854.06;5023905;28;20049;-69
2022/06/29 03:13:19;;;;;;;43.10;16.58;;;;;;;-143.10;59.18;50877.56;5023962;28;20112;-68
2022/06/29 03:16:08;;;;;;;37.85;16.35;;;;;;;-143.10;59.83;50871.69;5023314;28;20059;-67
2022/06/29 03:18:57;;;;;;;46.80;16.48;;;;;;;-143.10;62.02;50883.44;5014519;28;20041;-68
2022/06/29 03:21:39;;;;;;;44.20;15.80;;;;;;;-143.10;58.13;50846.22;5010228;28;20057;-68
2022/06/29 03:24:28;;;;;;;29.10;11.85;;;;;;;-143.10;55.86;50840.34;5016071;28;20074;-68
2022/06/29 03:27:10;;;;;;;34.10;11.77;;;;;;;-143.10;56.94;50865.81;5015674;28;20073;-68
2022/06/29 03:30:05;;;;;;;49.90;13.18;;;;;;;-143.10;54.91;50856.03;5016608;28;20214;-69
2022/06/29 03:32:54;;;;;;;36.33;11.73;;;;;;;-143.10;55.04;50861.88;5023686;28;20481;-69
2022/06/29 03:35:43;;;;;;;35.60;12.27;;;;;;;-143.10;55.12;50830.56;5006556;28;20057;-68
2022/06/29 03:38:25;;;;;;;34.22;13.38;;;;;;;-143.10;53.07;50836.44;5033693;28;20131;-67
2022/06/29 03:41:14;;;;;;;35.88;13.77;;;;;;;-143.10;56.51;50857.97;5044254;28;20049;-68
2022/06/29 03:44:04;;;;;;;48.67;14.85;;;;;;;-143.10;56.20;50848.19;5046618;28;20067;-67
2022/06/29 03:46:46;;;;;;;47.60;14.75;;;;;;;-143.10;54.06;50834.47;5025604;28;20135;-68
2022/06/29 03:49:35;;;;;;;48.20;13.82;;;;;;;-143.10;52.36;50867.75;5043224;28;20056;-66
2022/06/29 03:52:18;;;;;;;;;;;;;;;-143.10;52.00;50836.44;5043439;28;20482;-69
2022/06/29 03:55:07;;;;;;;35.55;12.77;;;;;;;-143.10;54.28;50834.47;5043269;28;19924;-68
2022/06/29 03:57:56;;;;;;;43.95;13.55;;;;;;;-143.10;53.01;50854.06;5043178;28;20134;-68
2022/06/29 04:00:38;;;;;;;36.75;14.00;;;;;;;-143.10;50.91;50818.81;5041816;28;20060;-67
2022/06/29 04:03:27;;;;;;;44.33;12.15;;;;;;;-143.10;54.23;50846.22;5042874;28;20110;-68
2022/06/29 04:06:10;;;;;;;41.03;12.97;;;;;;;-143.10;51.66;50838.41;5040647;28;20087;-68
2022/06/29 04:08:59;;;;;;;41.35;13.43;;;;;;;-143.10;53.53;50834.47;5042273;28;20136;-68
2022/06/29 04:11:51;;;;;;;39.03;12.15;;;;;;;-143.10;54.91;50846.22;5041802;28;20044;-68
2022/06/29 04:14:40;;;;;;;36.58;11.63;;;;;;;-143.10;50.42;50857.97;5006880;28;20046;-69
2022/06/29 04:17:22;;;;;;;32.70;12.77;;;;;;;-143.10;50.76;50822.75;5043374;28;20635;-68
2022/06/29 04:21:05;;;;;;;45.90;12.35;;;;;;;-143.10;52.95;50811.00;5038963;28;20099;-69
2022/06/29 04:23:15;;;;;;;48.20;15.48;;;;;;;-143.10;51.49;50850.16;5023901;28;20172;-69
2022/06/29 04:26:04;;;;;;;43.38;14.88;;;;;;;-143.10;51.08;50814.91;5024236;28;20042;-68
2022/06/29 04:28:46;;;;;;;46.53;13.18;;;;;;;-143.10;50.42;50791.41;5031358;28;20053;-68
2022/06/29 04:31:43;;;;;;;45.17;14.48;;;;;;;-143.10;53.01;50850.16;5045528;28;20099;-69
2022/06/29 04:34:32;;;;;;;38.22;13.65;;;;;;;-143.10;54.52;50824.69;5043261;28;20045;-69
2022/06/29 04:37:21;;;;;;;40.25;13.75;;;;;;;-143.10;52.93;50795.34;5042462;28;20041;-68
2022/06/29 04:40:03;;;;;;;38.08;12.50;;;;;;;-143.10;51.23;50816.88;5040960;28;20064;-69
2022/06/29 04:42:52;;;;;;;33.33;12.20;;;;;;;-143.10;54.43;50822.75;5019184;28;20117;-69
2022/06/29 04:48:41;;;;;;;48.80;14.27;;;;;;;-143.10;51.03;50842.31;5042937;28;20053;-69
2022/06/29 04:51:25;;;;;;;49.92;11.57;;;;;;;-143.10;53.42;50842.31;5043118;28;20049;-69
2022/06/29 04:54:14;;;;;;;41.83;11.82;;;;;;;-143.10;49.98;50793.38;5046446;28;20053;-69
2022/06/29 04:56:56;;;;;;;47.63;12.73;;;;;;;-143.10;53.24;50787.50;5047011;28;20055;-68
2022/06/29 04:59:45;;;;;;;44.10;12.90;;;;;;;-143.10;51.30;50822.75;5028841;28;20053;-69
2022/06/29 05:02:27;;;;;;;42.50;11.95;;;;;;;-143.10;52.81;50807.06;5046519;28;20140;-69
2022/06/29 05:05:16;;;;;;;54.92;14.05;;;;;;;-143.10;49.36;50803.16;5046497;28;20057;-69
2022/06/29 05:07:58;;;;;;;40.57;12.87;;;;;;;-143.10;49.56;50812.94;5046919;28;20468;-70
2022/06/29 05:10:48;;;;;;;48.30;12.48;;;;;;;-143.10;50.37;50818.81;5046753;28;20045;-69
2022/06/29 05:13:29;;;;;;;;;;;;;;;-143.10;51.21;50816.88;5045914;28;20044;-69
2022/06/29 05:16:19;;;;;;;50.97;13.18;;;;;;;-143.10;53.34;50791.41;5030651;28;19928;-69
2022/06/29 05:19:15;;;;;;;47.08;12.45;;;;;;;-143.10;52.40;50832.53;5046112;28;20142;-67
2022/06/29 05:21:50;;;;;;;28.65;10.38;;;;;;;-143.10;51.17;50807.06;5047577;28;20072;-68
2022/06/29 05:24:45;;;;;;;43.17;11.07;;;;;;;-143.10;52.79;50836.44;5059069;28;20051;-68
2022/06/29 05:27:20;;;;;;;46.25;10.73;;;;;;;-143.10;51.23;50791.41;5066411;28;20040;-68
2022/06/29 05:30:16;;;;;;;34.70;11.05;;;;;;;-143.10;54.83;50805.13;5031064;27;20103;-68
2022/06/29 05:33:05;;;;;;;43.67;10.38;;;;;;;-143.10;48.18;50822.75;5026628;28;20052;-66
2022/06/29 05:35:54;;;;;;;42.65;10.15;;;;;;;-143.10;53.67;50818.81;5025649;28;20329;-67
2022/06/29 05:38:37;;;;;;;41.75;11.48;;;;;;;-143.10;49.88;50803.16;5017030;28;20052;-67
2022/06/29 05:41:26;;;;;;;52.30;12.38;;;;;;;-143.10;50.10;50826.66;5026001;28;20056;-67
2022/06/29 05:44:08;;;;;;;36.17;11.40;;;;;;;-143.10;47.83;50781.63;5026729;28;20057;-68
2022/06/29 05:46:57;;;;;;;36.33;9.57;;;;;;;-143.10;49.78;50812.94;5026620;28;20052;-68
2022/06/29 05:49:39;;;;;;;42.92;10.20;;;;;;;-143.10;47.10;50799.25;5011382;28;20057;-68
2022/06/29 05:52:28;;;;;;;60.10;11.35;;;;;;;-143.10;49.61;50795.34;5025758;28;20482;-69
2022/06/29 05:55:10;;;;;;;46.33;11.13;;;;;;;-143.10;49.93;50840.34;5025748;28;20038;-68
2022/06/29 05:57:59;;;;;;;45.47;12.05;;;;;;;-143.10;50.76;50818.81;5025821;28;20103;-68
2022/06/29 06:00:41;;;;;;;38.15;11.02;;;;;;;-143.10;50.55;50805.13;5025764;28;20049;-67
2022/06/29 06:03:30;;;;;;;46.67;12.00;;;;;;;-143.10;48.49;50812.94;5025441;28;20053;-68
2022/06/29 06:06:12;;;;;;;49.90;12.70;;;;;;;-143.10;55.16;50807.06;5025334;28;20041;-67
2022/06/29 06:09:01;;;;;;;35.17;11.95;;;;;;;-143.10;54.55;50803.16;5025632;28;20049;-67
2022/06/29 06:11:43;;;;;;;49.38;13.77;;;;;;;-143.10;47.30;50783.59;5025720;28;20063;-67
2022/06/29 06:14:32;;;;;;;34.70;11.25;;;;;;;-143.10;47.33;50809.03;5025342;28;20083;-68
2022/06/29 06:17:14;;;;;;;50.73;12.27;;;;;;;-143.10;48.21;50805.13;5025319;28;20075;-68
2022/06/29 06:20:03;;;;;;;39.55;12.05;;;;;;;-143.10;49.54;50791.41;5025561;28;20041;-67
2022/06/29 06:22:45;;;;;;;31.40;11.70;;;;;;;-143.10;48.93;50803.16;5025195;28;20037;-67
2022/06/29 06:25:40;;;;;;;44.67;12.20;;;;;;;-143.10;48.73;50795.34;5021324;28;20507;-68
2022/06/29 06:28:35;;;;;;;52.75;13.32;;;;;;;-143.10;50.91;50787.50;5028118;28;20072;-67
2022/06/29 06:31:23;;;;;;;48.97;14.30;;;;;;;-143.10;47.88;50830.56;5055358;27;20067;-68
2022/06/29 06:34:14;;;;;;;38.75;13.27;;;;;;;-143.10;50.58;50799.25;5064890;28;20113;-68
2022/06/29 06:37:02;;;;;;;46.80;13.23;;;;;;;-143.10;49.63;50791.41;5065398;28;20067;-66
2022/06/29 06:42:50;;;;;;;46.70;14.68;;;;;;;-143.10;52.39;50799.25;5064792;28;20448;-67
2022/06/29 06:45:39;;;;;;;45.42;13.93;;;;;;;-143.10;49.16;50803.16;5060660;28;20040;-67
2022/06/29 06:48:21;;;;;;;47.13;13.75;;;;;;;-143.10;51.19;50812.94;5044280;28;20099;-68
2022/06/29 06:51:18;;;;;;;47.60;13.90;;;;;;;-143.10;50.58;50840.34;5044376;28;20461;-67
2022/06/29 06:53:53;;;;;;;39.78;12.88;;;;;;;-143.10;52.83;50787.50;5044755;28;20079;-66
2022/06/29 06:56:42;;;;;;;45.10;13.88;;;;;;;-143.10;55.36;50814.91;5044738;28;20063;-67
2022/06/29 06:59:24;;;;;;;42.63;13.17;;;;;;;-143.10;54.95;50807.06;5043858;28;20138;-67
2022/06/29 07:02:28;;;;;;;43.20;12.40;;;;;;;-143.10;52.61;50811.00;5043768;28;20801;-66
2022/06/29 07:05:17;;;;;;;36.78;11.27;;;;;;;-143.10;53.08;50803.16;5044618;28;20055;-67
2022/06/29 07:08:06;;;;;;;49.70;13.27;;;;;;;-143.10;51.27;50822.75;5044643;28;20147;-66
2022/06/29 07:10:48;;;;;;;47.80;11.35;;;;;;;-143.10;50.45;50814.91;5043878;28;20103;-66
2022/06/29 07:13:37;;;;;;;46.63;10.88;;;;;;;-143.10;55.41;50799.25;5037512;28;20040;-67
2022/06/29 07:16:33;;;;;;;42.25;11.35;;;;;;;-143.10;51.89;50814.91;5036597;28;20102;-66
2022/06/29 07:19:15;;;;;;;37.50;11.00;;;;;;;-143.10;50.85;50785.53;5041969;28;20048;-67
2022/06/29 07:22:05;;;;;;;38.70;10.65;;;;;;;-143.10;50.80;50805.13;5044175;28;20044;-67
2022/06/29 07:24:48;;;;;;;39.63;10.38;;;;;;;-143.10;50.99;50799.25;5043977;28;20144;-65
2022/06/29 07:27:37;;;;;;;38.20;9.38;;;;;;;-143.10;52.45;50791.41;5042902;28;20041;-67
2022/06/29 07:30:19;;;;;;;39.85;10.02;;;;;;;-143.10;51.85;50826.66;5023042;28;20465;-67
2022/06/29 07:33:14;;;;;;;33.13;8.43;;;;;;;-143.10;53.51;50811.00;5031431;28;20110;-66
2022/06/29 07:35:49;;;;;;;30.15;9.50;;;;;;;-143.10;49.23;50787.50;5025772;28;20104;-68
2022/06/29 07:38:38;;;;;;;33.75;8.38;;;;;;;-143.10;48.57;50809.03;5042878;28;20045;-67
2022/06/29 07:41:27;;;;;;;40.67;9.65;;;;;;;-143.10;55.67;50807.06;5042814;28;20117;-68
2022/06/29 07:44:09;;;;;;;33.50;8.13;;;;;;;-143.10;49.29;50818.81;5024041;28;20045;-69
2022/06/29 07:46:58;;;;;;;31.73;7.60;;;;;;;-143.10;49.20;50824.69;5024352;28;20057;-68
2022/06/29 07:49:40;;;;;;;37.15;8.15;;;;;;;-143.10;49.69;50801.19;5023917;28;20056;-66
2022/06/29 07:52:29;;;;;;;34.03;8.10;;;;;;;-143.10;49.00;50822.75;5023809;28;20046;-67
2022/06/29 07:55:19;;;;;;;48.75;8.57;;;;;;;-143.10;48.86;50809.03;5006763;28;20336;-67
2022/06/29 07:58:09;;;;;;;27.75;7.20;;;;;;;-143.10;47.32;50779.66;5025192;28;20123;-68
2022/06/29 08:00:58;;;;;;;35.45;8.32;;;;;;;-143.10;48.46;50791.41;5024251;28;20053;-68
2022/06/29 08:03:47;;;;;;;37.47;9.07;;;;;;;-143.10;51.68;50771.84;5024232;28;20052;-68
2022/06/29 08:06:29;;;;;;;43.13;8.68;;;;;;;-143.10;47.01;50809.03;5024282;28;20113;-68
2022/06/29 08:09:18;;;;;;;44.60;9.93;;;;;;;-143.10;47.24;50795.34;5023357;28;20138;-68
2022/06/29 08:12:00;;;;;;;34.65;7.70;;;;;;;-143.10;49.06;50805.13;5023945;28;20107;-67
2022/06/29 08:14:49;;;;;;;36.95;7.45;;;;;;;-143.10;47.16;50775.75;5022786;28;20146;-68
2022/06/29 08:17:32;;;;;;;41.17;10.18;;;;;;;-143.10;44.23;50779.66;5022455;28;20065;-67
2022/06/29 08:20:22;;;;;;;40.75;8.10;;;;;;;-143.10;46.70;50795.34;5026541;28;20504;-67
2022/06/29 08:23:03;;;;;;;;;;;;;;;-143.10;48.33;50783.59;5024018;28;20051;-70
2022/06/29 08:25:52;;;;;;;34.25;8.32;;;;;;;-143.10;51.41;50799.25;5024658;28;19925;-68
2022/06/29 08:29:01;;;;;;;42.95;8.63;;;;;;;-143.10;50.96;50791.41;5032434;28;20133;-67
2022/06/29 08:31:43;;;;;;;39.05;10.60;;;;;;;-143.10;52.23;50791.41;5054083;28;20048;-68
2022/06/29 08:34:41;;;;;;;27.80;7.22;;;;;;;-143.10;46.89;50787.50;5048928;28;20110;-67
2022/06/29 08:37:30;;;;;;;46.45;8.00;;;;;;;-143.10;46.17;50760.09;5046561;28;20103;-67
2022/06/29 08:40:21;;;;;;;34.85;7.25;;;;;;;-143.10;46.11;50764.00;5029458;28;20069;-67
2022/06/29 08:43:12;;;;;;;30.08;7.60;;;;;;;-143.10;47.07;50771.84;5046830;28;20045;-67
2022/06/29 08:46:02;;;;;;;44.95;7.70;;;;;;;-143.10;46.06;50777.72;5047153;28;20389;-67
2022/06/29 08:48:43;;;;;;;;;;;;;;;-143.10;46.81;50771.84;5047661;28;20152;-66
2022/06/29 08:51:38;;;;;;;30.45;7.00;;;;;;;-143.10;46.69;50787.50;5046986;28;19932;-66
2022/06/29 08:54:21;;;;;;;29.88;7.25;;;;;;;-143.10;44.61;50793.38;5025567;28;20045;-67
2022/06/29 08:57:11;;;;;;;28.95;8.15;;;;;;;-143.10;47.92;50830.56;5044353;28;20050;-67
2022/06/29 08:59:55;;;;;;;33.70;8.48;;;;;;;-143.10;49.95;50767.91;5044999;28;20536;-68
2022/06/29 09:02:44;;;;;;;41.63;8.85;;;;;;;-143.10;48.96;50764.00;5026866;28;20492;-68
2022/06/29 09:05:33;;;;;;;38.13;8.07;;;;;;;-143.10;49.66;50793.38;5027183;28;20107;-68
2022/06/29 09:08:23;;;;;;;38.30;8.18;;;;;;;-143.10;49.82;50775.75;5026456;28;20103;-68
2022/06/29 09:11:25;;;;;;;37.17;9.52;;;;;;;-143.10;49.07;50783.59;5027332;28;20115;-69
2022/06/29 09:14:16;;;;;;;40.55;9.15;;;;;;;-143.10;51.31;50799.25;5026073;28;20099;-68
2022/06/29 09:17:00;;;;;;;48.87;11.83;;;;;;;-143.10;50.26;50787.50;5027013;28;20199;-68
2022/06/29 09:19:54;;;;;;;32.40;9.23;;;;;;;-143.10;50.40;50789.47;5027091;28;20069;-69
2022/06/29 09:22:54;;;;;;;55.25;8.65;;;;;;;-143.10;51.20;50787.50;5046915;28;20427;-67
2022/06/29 09:25:43;;;;;;;36.30;8.40;;;;;;;-143.10;52.40;50785.53;5046331;28;20045;-68
2022/06/29 09:28:34;;;;;;;32.20;7.60;;;;;;;-143.10;53.09;50795.34;5050948;28;20041;-68
2022/06/29 09:31:29;;;;;;;34.70;7.40;;;;;;;-143.10;52.29;50775.75;5048512;28;20052;-69
2022/06/29 09:34:20;;;;;;;39.25;7.80;;;;;;;-143.10;54.47;50781.63;5067366;28;20040;-68
2022/06/29 09:37:12;;;;;;;39.75;7.97;;;;;;;-143.10;52.20;50789.47;5066068;28;20049;-68
2022/06/29 09:39:56;;;;;;;39.15;7.30;;;;;;;-143.10;51.62;50803.16;5065858;28;20048;-68
2022/06/29 09:42:45;;;;;;;39.67;7.05;;;;;;;-143.10;50.79;50773.78;5066687;28;20134;-68
2022/06/29 09:45:35;;;;;;;32.90;7.10;;;;;;;-143.10;50.15;50789.47;5050920;28;20468;-69
2022/06/29 09:48:17;;;;;;;58.53;8.38;;;;;;;-143.10;50.11;50783.59;5065894;28;20067;-68
2022/06/29 09:54:12;;;;;;;30.75;7.57;;;;;;;-143.10;49.74;50795.34;5045218;28;20059;-68
2022/06/29 09:57:01;;;;;;;39.85;8.50;;;;;;;-143.10;49.69;50775.75;5046183;28;20048;-69
2022/06/29 10:02:58;;;;;;;52.90;9.07;;;;;;;-143.10;50.33;50773.78;5045650;28;19932;-67
2022/06/29 10:05:59;;;;;;;38.60;8.20;;;;;;;-143.10;50.71;50787.50;5045927;28;20143;-70
2022/06/29 10:08:41;;;;;;;38.72;8.25;;;;;;;-143.10;49.16;50771.84;5045460;28;20140;-68
2022/06/29 10:15:13;;;;;;;40.20;7.40;;;;;;;-143.10;52.37;50760.09;5043131;28;20753;-67
2022/06/29 10:18:09;;;;;;;47.47;9.68;;;;;;;-143.10;49.87;50811.00;5025656;28;20046;-69
2022/06/29 10:20:58;;;;;;;21.02;6.90;;;;;;;-143.10;51.15;50811.00;5035812;28;20196;-69
2022/06/29 10:24:13;;;;;;;53.10;10.00;;;;;;;-143.10;50.18;50771.84;5045295;28;20543;-69
2022/06/29 10:27:06;;;;;;;56.85;9.90;;;;;;;-143.10;51.67;50762.06;5006445;28;20055;-68
2022/06/29 10:29:49;;;;;;;43.67;8.00;;;;;;;-143.10;51.30;50764.00;5057940;28;20040;-68
2022/06/29 10:32:44;;;;;;;54.50;7.38;;;;;;;-143.10;50.60;50765.97;5066789;28;20056;-68
2022/06/29 10:36:17;;;;;;;33.10;7.93;;;;;;;-143.10;49.75;50777.72;5045287;28;20484;-68
2022/06/29 10:39:06;;;;;;;40.63;8.60;;;;;;;-143.10;51.11;50789.47;5042413;28;20053;-68
2022/06/29 10:45:03;;;;;;;49.95;8.50;;;;;;;-143.10;48.64;50787.50;5035039;28;20044;-67
2022/06/29 10:48:06;;;;;;;48.95;8.45;;;;;;;-143.10;54.11;50771.84;5038548;28;20127;-68
2022/06/29 10:50:49;;;;;;;51.90;10.82;;;;;;;-143.10;52.38;50795.34;5034631;28;20122;-68
2022/06/29 10:53:38;;;;;;;43.15;7.93;;;;;;;-143.10;50.13;50805.13;5046149;28;20049;-69
2022/06/29 10:56:47;;;;;;;30.85;6.82;;;;;;;-143.10;49.62;50777.72;5044972;28;20156;-67
2022/06/29 10:59:45;;;;;;;34.27;7.13;;;;;;;-143.10;50.83;50771.84;5044270;28;20155;-68
2022/06/29 11:02:34;;;;;;;29.98;7.80;;;;;;;-143.10;51.62;50767.91;5043840;28;20111;-68
2022/06/29 11:05:16;;;;;;;35.95;9.02;;;;;;;-143.10;50.79;50771.84;5041682;28;20063;-67
2022/06/29 11:17:39;;;;;;;44.70;7.07;;;;;;;-143.10;49.56;50787.50;5024265;28;20045;-68
2022/06/29 11:20:24;;;;;;;40.28;8.23;;;;;;;-143.10;48.15;50773.78;5030007;28;20559;-68
2022/06/29 11:23:07;;;;;;;37.70;7.30;;;;;;;-143.10;48.42;50764.00;5044566;28;20542;-69
2022/06/29 11:25:57;;;;;;;47.97;7.95;;;;;;;-143.10;49.20;50787.50;5043469;28;20045;-68
2022/06/29 11:28:47;;;;;;;33.83;8.00;;;;;;;-143.10;50.21;50773.78;5042133;28;20142;-67
2022/06/29 11:31:28;;;;;;;;;;;;;;;-143.10;47.81;50803.16;5043249;28;20114;-68
2022/06/29 11:34:23;;;;;;;35.97;7.72;;;;;;;-143.10;48.35;50765.97;5043510;28;19932;-69
2022/06/29 11:37:12;;;;;;;43.63;7.20;;;;;;;-143.10;49.13;50760.09;5043685;28;20049;-69
2022/06/29 11:40:01;;;;;;;48.47;7.13;;;;;;;-143.10;48.95;50764.00;5043855;28;20425;-66
2022/06/29 11:45:58;;;;;;;43.42;7.70;;;;;;;-143.10;51.88;50779.66;5043571;28;20239;-67
2022/06/29 11:52:01;;;;;;;30.45;6.68;;;;;;;-143.10;49.87;50787.50;5041928;28;20053;-67
2022/06/29 11:54:48;;;;;;;48.17;8.95;;;;;;;-143.10;52.29;50773.78;5042737;28;20342;-68
2022/06/29 11:57:37;;;;;;;38.13;7.03;;;;;;;-143.10;51.75;50803.16;5036565;28;20389;-68
2022/06/29 12:00:24;;;;;;;;;;;;;;;-143.10;50.71;50785.53;5043781;28;20114;-67
2022/06/29 12:03:14;;;;;;;28.80;8.47;;;;;;;-143.10;52.33;50783.59;5049688;28;19932;-68
2022/06/29 12:05:59;;;;;;;;;;;;;;;-143.10;52.09;50775.75;5050851;28;20049;-67
2022/06/29 12:08:48;;;;;;;43.20;6.97;;;;;;;-143.10;51.71;50779.66;5050460;28;20302;-68
2022/06/29 12:11:30;;;;;;;36.03;7.68;;;;;;;-143.10;52.68;50771.84;5050201;28;20057;-68
2022/06/29 12:14:19;;;;;;;39.75;7.70;;;;;;;-143.10;53.81;50775.75;5049707;28;20103;-68
2022/06/29 12:17:09;;;;;;;39.65;7.20;;;;;;;-143.10;53.62;50799.25;5050144;28;20049;-68
2022/06/29 12:19:58;;;;;;;41.20;9.52;;;;;;;-143.10;54.18;50775.75;5050459;28;20055;-67
2022/06/29 12:22:50;;;;;;;39.08;7.10;;;;;;;-143.10;54.98;50760.09;5069489;28;20495;-68
2022/06/29 12:25:39;;;;;;;44.10;8.60;;;;;;;-143.10;55.27;50801.19;5068583;28;20048;-68
2022/06/29 12:28:21;;;;;;;58.55;8.10;;;;;;;-143.10;52.68;50781.63;5055446;28;20416;-68
2022/06/29 12:31:11;;;;;;;49.90;8.70;;;;;;;-143.10;53.79;50832.53;5048285;28;20044;-68
2022/06/29 12:33:53;;;;;;;51.78;8.00;;;;;;;-143.10;53.04;50818.81;5048829;28;20311;-69
2022/06/29 12:37:09;;;;;;;38.88;7.18;;;;;;;-143.10;53.79;50812.94;5050751;27;20087;-68
2022/06/29 12:39:58;;;;;;;40.20;7.72;;;;;;;-143.10;54.55;50783.59;5049572;28;20091;-68
2022/06/29 12:42:41;;;;;;;44.60;8.60;;;;;;;-143.10;54.96;50779.66;5050400;28;20048;-69
2022/06/29 12:45:31;;;;;;;31.55;9.40;;;;;;;-143.10;51.37;50783.59;5050543;28;20060;-68
2022/06/29 12:48:14;;;;;;;47.38;8.43;;;;;;;-143.10;57.34;50767.91;5050944;28;20052;-68
2022/06/29 12:51:03;;;;;;;45.60;7.55;;;;;;;-143.10;54.45;50779.66;5051837;28;20040;-69
2022/06/29 12:53:45;;;;;;;41.88;8.35;;;;;;;-143.10;54.76;50775.75;5049420;28;20048;-69
2022/06/29 12:56:34;;;;;;;50.40;8.50;;;;;;;-143.10;55.48;50795.34;5050283;28;20060;-68
2022/06/29 12:59:23;;;;;;;55.35;8.48;;;;;;;-143.10;53.42;50779.66;5049694;28;20045;-68
2022/06/29 13:02:05;;;;;;;45.90;7.78;;;;;;;-143.10;55.50;50812.94;5050035;28;20052;-68
2022/06/29 13:04:54;;;;;;;45.15;8.30;;;;;;;-143.10;54.11;50818.81;5049100;28;20123;-68
2022/06/29 13:07:37;;;;;;;49.25;8.23;;;;;;;-143.10;54.83;50785.53;5021912;28;20045;-70
2022/06/29 13:10:30;;;;;;;54.72;8.32;;;;;;;-143.10;53.66;50791.41;5045511;28;20056;-69
2022/06/29 13:13:13;;;;;;;46.67;7.63;;;;;;;-143.10;56.27;50807.06;5045971;28;20567;-69
2022/06/29 13:16:02;;;;;;;41.35;7.97;;;;;;;-143.10;56.57;50795.34;5047145;28;20048;-68
2022/06/29 13:18:45;;;;;;;39.70;8.23;;;;;;;-143.10;58.67;50807.06;5046164;28;20365;-69